• Join FlightAware (Why Join?)
  • Login
  • US Flag 
10:55AM EST


 

Airport Tracker/Info


-or-


 

Live Flight TrackerFlight Track Log ✈ CTL78 ✈ 24-May-2013 ✈ KYIP - KBKL

Flight Track Log - Related Links

Times and Time Zones

All times are in EDT time to prevent confusion due to time zone crossing. See the CTL78 flight status page for this flight to view local times or setup timezone preferences in your user account.

Time Position Orientation Groundspeed Altitude Reporting Facility
EDT Latitude Longitude Course Direction KTS MPH feet Rate Location/Type
05:57PM 42.2631 -83.5714 297° West 124 143 2,300  Level Cleveland Center
05:57PM 42.2722 -83.6111 287° West 113 130 3,500 1,140 Climbing Cleveland Center
05:58PM 42.2906 -83.6317 320° Northwest 114 131 4,600 720 Climbing Cleveland Center
06:00PM 42.2753 -83.5803 112° Southeast 164 189 5,100 180 Climbing Cleveland Center
06:01PM 42.2456 -83.5200 124° Southeast 188 216 5,100 -60 Level Cleveland Center
06:02PM 42.2219 -83.4600 118° Southeast 174 200 5,000  Descending Cleveland Center
06:03PM 42.2006 -83.4003 116° Southeast 176 203 5,100  Climbing Cleveland Center
06:04PM 42.1789 -83.3458 118° Southeast 176 203 5,000  Descending Cleveland Center
06:05PM 42.1575 -83.2833 115° Southeast 170 196 5,100  Climbing Cleveland Center
06:06PM 42.1319 -83.2208 119° Southeast 179 206 5,100  Level Cleveland Center
06:07PM 42.1103 -83.1583 115° Southeast 180 207 5,100 60 Level Cleveland Center
06:08PM 42.0825 -83.0956 121° Southeast 181 208 5,300 360 Climbing Cleveland Center
06:09PM 42.0589 -83.0358 118° Southeast 171 197 5,900 540 Climbing Cleveland Center
06:10PM 42.0350 -82.9792 120° Southeast 173 199 6,400 420 Climbing Cleveland Center
06:11PM 42.0111 -82.9250 121° Southeast 174 200 6,800 300 Climbing Cleveland Center
06:12PM 41.9892 -82.8683 118° Southeast 175 201 7,100 120 Climbing Cleveland Center
06:13PM 41.9633 -82.8117 121° Southeast 188 216 7,100  Level Cleveland Center
06:14PM 41.9333 -82.7436 121° Southeast 190 219 7,100 -60 Level Cleveland Center
06:15PM 41.9053 -82.6783 120° Southeast 186 214 7,000  Descending Cleveland Center
06:16PM 41.8856 -82.6219 115° Southeast 187 215 7,100  Climbing Cleveland Center
06:17PM 41.8575 -82.5569 120° Southeast 187 215 7,000 -420 Descending Cleveland Center
06:18PM 41.8294 -82.4808 116° Southeast 207 238 6,300 -720 Descending Cleveland Center
06:19PM 41.7972 -82.4158 124° Southeast 209 241 5,600 -660 Descending Cleveland Center
06:20PM 41.7714 -82.3456 116° Southeast 204 235 5,000 -720 Descending Cleveland Center
06:21PM 41.7492 -82.2836 116° Southeast 207 238 4,300 -540 Descending Cleveland Center
06:22PM 41.7211 -82.2133 118° Southeast 209 241 4,000 -180 Descending Cleveland Center
06:23PM 41.6950 -82.1489 118° Southeast 195 224 4,000 -180 Level Cleveland Center
06:24PM 41.6667 -82.0869 121° Southeast 199 229 3,700 -420 Descending Cleveland Center
06:25PM 41.6508 -82.0253 109° East 194 223 3,200 -420 Descending Cleveland Center
06:26PM 41.6556 -81.9617 84° East 175 201 3,000 -60 Descending Cleveland Center
06:27PM 41.6269 -81.9108 127° Southeast 173 199 3,100 -120 Climbing Cleveland Center
06:28PM 41.5983 -81.8631 129° Southeast 171 197 2,800 -420 Descending Cleveland Center
06:29PM 41.5636 -81.8153 134° Southeast 172 198 2,300 -480 Descending Cleveland Center
06:30PM 41.5328 -81.7703 132° Southeast 172 198 1,900 -480 Descending Cleveland Center
06:31PM 41.5061 -81.7256 129° Southeast 135 155 1,400 -540 Descending Cleveland Center
06:33PM 41.5175 -81.6833 116° Southeast  Level Estimated
06:40PM 41.5175 -81.6833 116° Southeast  Level Estimated